Time;durP1;ratioP1;P1;durP2;ratioP2;P2;SDS_P1;SDS_P2;PMS_P1;PMS_P2;Temp;Humidity;BMP_temperature;BMP_pressure;BME280_temperature;BME280_humidity;BME280_pressure;Samples;Min_cycle;Max_cycle;Signal;HPM_P1;HPM_P2
2020/03/23 00:00:34;;;;;;;4.450001;3.4;;;;;;;-2.51;54.76074;96509.52;;;;
2020/03/23 00:01:57;;;;;;;4.9;3.65;;;;;;;-2.59;55.13574;96516.41;;;;
2020/03/23 00:04:24;;;;;;;5.7;3.55;;;;;;;-2.56;55.22266;96516.14;;;;
2020/03/23 00:06:00;;;;;;;5.7;3.55;;;;;;;-2.56;55.22266;96516.14;;;;
2020/03/23 00:07:30;;;;;;;5.7;3.55;;;;;;;-2.56;55.22266;96516.14;;;;
2020/03/23 00:09:01;;;;;;;5.7;3.55;;;;;;;-2.56;55.22266;96516.14;;;;
2020/03/23 00:11:02;;;;;;;5.7;3.55;;;;;;;-2.56;55.22266;96516.14;;;;
2020/03/23 00:12:08;;;;;;;5.7;3.55;;;;;;;-2.56;55.22266;96516.14;;;;
2020/03/23 00:13:19;;;;;;;5.7;3.55;;;;;;;-2.56;55.22266;96516.14;;;;
2020/03/23 00:18:42;;;;;;;4.699999;3.75;;;;;;;-2.69;55.59277;96513.25;;;;
2020/03/23 00:19:57;;;;;;;4.699999;3.75;;;;;;;-2.69;55.59277;96513.25;;;;
2020/03/23 00:21:18;;;;;;;4.699999;3.75;;;;;;;-2.69;55.59277;96513.25;;;;
2020/03/23 00:22:21;;;;;;;4.699999;3.75;;;;;;;-2.69;55.59277;96513.25;;;;
2020/03/23 00:23:29;;;;;;;4.699999;3.75;;;;;;;-2.69;55.59277;96513.25;;;;
2020/03/23 00:26:59;;;;;;;4.699999;3.75;;;;;;;-2.69;55.59277;96513.25;;;;
2020/03/23 00:28:00;;;;;;;5;3.5;;;;;;;-2.83;55.27246;96510;;;;
2020/03/23 00:29:21;;;;;;;5;3.5;;;;;;;-2.83;55.27246;96510;;;;
2020/03/23 00:30:25;;;;;;;5;3.5;;;;;;;-2.83;55.27246;96510;;;;
2020/03/23 00:31:30;;;;;;;5;3.5;;;;;;;-2.83;55.27246;96510;;;;
2020/03/23 00:32:30;;;;;;;5;3.5;;;;;;;-2.83;55.27246;96510;;;;
2020/03/23 00:33:30;;;;;;;5;3.5;;;;;;;-2.83;55.27246;96510;;;;
2020/03/23 00:34:33;;;;;;;5;3.5;;;;;;;-2.83;55.27246;96510;;;;
2020/03/23 00:35:33;;;;;;;5;3.5;;;;;;;-2.83;55.27246;96510;;;;
2020/03/23 00:36:34;;;;;;;5;3.5;;;;;;;-2.83;55.27246;96510;;;;
2020/03/23 00:37:35;;;;;;;5;3.5;;;;;;;-2.83;55.27246;96510;;;;
2020/03/23 00:38:35;;;;;;;4.450001;3.5;;;;;;;-2.92;55.39648;96504.57;;;;
2020/03/23 00:39:37;;;;;;;4.450001;3.5;;;;;;;-2.92;55.39648;96504.57;;;;
2020/03/23 00:40:39;;;;;;;4.450001;3.5;;;;;;;-2.92;55.39648;96504.57;;;;
2020/03/23 00:41:40;;;;;;;4.450001;3.5;;;;;;;-2.92;55.39648;96504.57;;;;
2020/03/23 00:42:40;;;;;;;4.450001;3.5;;;;;;;-2.92;55.39648;96504.57;;;;
2020/03/23 00:43:41;;;;;;;4.450001;3.5;;;;;;;-2.92;55.39648;96504.57;;;;
2020/03/23 00:44:43;;;;;;;4.450001;3.5;;;;;;;-2.92;55.39648;96504.57;;;;
2020/03/23 00:45:45;;;;;;;4.450001;3.5;;;;;;;-2.92;55.39648;96504.57;;;;
2020/03/23 00:46:47;;;;;;;4.450001;3.5;;;;;;;-2.92;55.39648;96504.57;;;;
2020/03/23 00:47:51;;;;;;;4.450001;3.5;;;;;;;-2.92;55.39648;96504.57;;;;
2020/03/23 00:48:55;;;;;;;5.6;3.75;;;;;;;-3.09;55.45605;96505.54;;;;
2020/03/23 00:49:57;;;;;;;5.6;3.75;;;;;;;-3.09;55.45605;96505.54;;;;
2020/03/23 00:50:58;;;;;;;5.6;3.75;;;;;;;-3.09;55.45605;96505.54;;;;
2020/03/23 00:52:00;;;;;;;6.25;4;;;;;;;-3.06;55.75195;96506.21;;;;
2020/03/23 00:53:06;;;;;;;6.25;4;;;;;;;-3.06;55.75195;96506.21;;;;
2020/03/23 00:54:08;;;;;;;6.25;4;;;;;;;-3.06;55.75195;96506.21;;;;
2020/03/23 00:55:08;;;;;;;6.25;4;;;;;;;-3.06;55.75195;96506.21;;;;
2020/03/23 00:56:09;;;;;;;6.25;4;;;;;;;-3.06;55.75195;96506.21;;;;
2020/03/23 00:57:12;;;;;;;6.25;4;;;;;;;-3.06;55.75195;96506.21;;;;
2020/03/23 00:58:13;;;;;;;6.25;4;;;;;;;-3.06;55.75195;96506.21;;;;
2020/03/23 00:59:14;;;;;;;6.25;4;;;;;;;-3.06;55.75195;96506.21;;;;
2020/03/23 01:00:14;;;;;;;6.25;4;;;;;;;-3.06;55.75195;96506.21;;;;
2020/03/23 01:01:20;;;;;;;6.25;4;;;;;;;-3.06;55.75195;96506.21;;;;
2020/03/23 01:02:30;;;;;;;5.300001;3.55;;;;;;;-3.16;55.94727;96509.16;;;;
2020/03/23 01:03:31;;;;;;;5.300001;3.55;;;;;;;-3.16;55.94727;96509.16;;;;
2020/03/23 01:04:39;;;;;;;5.300001;3.55;;;;;;;-3.16;55.94727;96509.16;;;;
2020/03/23 01:05:44;;;;;;;5.300001;3.55;;;;;;;-3.16;55.94727;96509.16;;;;
2020/03/23 01:06:45;;;;;;;5.300001;3.55;;;;;;;-3.16;55.94727;96509.16;;;;
2020/03/23 01:07:56;;;;;;;5.300001;3.55;;;;;;;-3.16;55.94727;96509.16;;;;
2020/03/23 01:08:57;;;;;;;5.300001;3.55;;;;;;;-3.16;55.94727;96509.16;;;;
2020/03/23 01:09:58;;;;;;;5.300001;3.55;;;;;;;-3.16;55.94727;96509.16;;;;
2020/03/23 01:11:21;;;;;;;5.300001;3.55;;;;;;;-3.16;55.94727;96509.16;;;;
2020/03/23 01:12:27;;;;;;;5.300001;3.55;;;;;;;-3.16;55.94727;96509.16;;;;
2020/03/23 01:13:39;;;;;;;5.3;3.7;;;;;;;-3.21;55.99219;96504.74;;;;
2020/03/23 01:14:39;;;;;;;5.3;3.7;;;;;;;-3.21;55.99219;96504.74;;;;
2020/03/23 01:15:40;;;;;;;5.3;3.7;;;;;;;-3.21;55.99219;96504.74;;;;
2020/03/23 01:16:49;;;;;;;5.3;3.7;;;;;;;-3.21;55.99219;96504.74;;;;
2020/03/23 01:17:52;;;;;;;5.3;3.7;;;;;;;-3.21;55.99219;96504.74;;;;
2020/03/23 01:18:54;;;;;;;5.3;3.7;;;;;;;-3.21;55.99219;96504.74;;;;
2020/03/23 01:19:56;;;;;;;5.3;3.7;;;;;;;-3.21;55.99219;96504.74;;;;
2020/03/23 01:20:57;;;;;;;5.3;3.7;;;;;;;-3.21;55.99219;96504.74;;;;
2020/03/23 01:21:59;;;;;;;5.3;3.7;;;;;;;-3.21;55.99219;96504.74;;;;
2020/03/23 01:22:59;;;;;;;5.3;3.7;;;;;;;-3.21;55.99219;96504.74;;;;
2020/03/23 01:24:00;;;;;;;5.4;3.65;;;;;;;-3.35;56.06836;96498.41;;;;
2020/03/23 01:25:05;;;;;;;5.4;3.65;;;;;;;-3.35;56.06836;96498.41;;;;
2020/03/23 01:26:06;;;;;;;5.25;3.85;;;;;;;-3.32;56.2168;96498.63;;;;
2020/03/23 01:27:07;;;;;;;5.25;3.85;;;;;;;-3.32;56.2168;96498.63;;;;
2020/03/23 01:28:09;;;;;;;5.25;3.85;;;;;;;-3.32;56.2168;96498.63;;;;
2020/03/23 01:29:10;;;;;;;5.25;3.85;;;;;;;-3.32;56.2168;96498.63;;;;
2020/03/23 01:30:16;;;;;;;5.25;3.85;;;;;;;-3.32;56.2168;96498.63;;;;
2020/03/23 01:31:37;;;;;;;5.25;3.85;;;;;;;-3.32;56.2168;96498.63;;;;
2020/03/23 01:32:45;;;;;;;5.25;3.85;;;;;;;-3.32;56.2168;96498.63;;;;
2020/03/23 01:33:46;;;;;;;5.25;3.85;;;;;;;-3.32;56.2168;96498.63;;;;
2020/03/23 01:34:50;;;;;;;5.25;3.85;;;;;;;-3.32;56.2168;96498.63;;;;
2020/03/23 01:35:55;;;;;;;5.25;3.85;;;;;;;-3.32;56.2168;96498.63;;;;
2020/03/23 01:36:59;;;;;;;5.65;4;;;;;;;-3.39;56.60449;96493.42;;;;
2020/03/23 01:38:06;;;;;;;5.65;4;;;;;;;-3.39;56.60449;96493.42;;;;
2020/03/23 01:39:07;;;;;;;5.65;4;;;;;;;-3.39;56.60449;96493.42;;;;
2020/03/23 01:41:18;;;;;;;5.65;4;;;;;;;-3.39;56.60449;96493.42;;;;
2020/03/23 01:42:32;;;;;;;5.65;4;;;;;;;-3.39;56.60449;96493.42;;;;
2020/03/23 01:43:33;;;;;;;5.65;4;;;;;;;-3.39;56.60449;96493.42;;;;
2020/03/23 01:44:41;;;;;;;5.65;4;;;;;;;-3.39;56.60449;96493.42;;;;
2020/03/23 01:45:43;;;;;;;5.65;4;;;;;;;-3.39;56.60449;96493.42;;;;
2020/03/23 01:46:44;;;;;;;5.65;4;;;;;;;-3.39;56.60449;96493.42;;;;
2020/03/23 01:47:44;;;;;;;7.55;4.3;;;;;;;-3.37;57.05371;96499.47;;;;
2020/03/23 01:48:45;;;;;;;7.55;4.3;;;;;;;-3.37;57.05371;96499.47;;;;
2020/03/23 01:49:47;;;;;;;7.55;4.3;;;;;;;-3.37;57.05371;96499.47;;;;
2020/03/23 01:50:48;;;;;;;7.55;4.3;;;;;;;-3.37;57.05371;96499.47;;;;
2020/03/23 01:51:49;;;;;;;7.55;4.3;;;;;;;-3.37;57.05371;96499.47;;;;
2020/03/23 01:52:52;;;;;;;7.55;4.3;;;;;;;-3.37;57.05371;96499.47;;;;
2020/03/23 01:53:53;;;;;;;7.55;4.3;;;;;;;-3.37;57.05371;96499.47;;;;
2020/03/23 01:54:54;;;;;;;7.55;4.3;;;;;;;-3.37;57.05371;96499.47;;;;
2020/03/23 01:55:55;;;;;;;7.55;4.3;;;;;;;-3.37;57.05371;96499.47;;;;
2020/03/23 01:56:56;;;;;;;7.55;4.3;;;;;;;-3.37;57.05371;96499.47;;;;
2020/03/23 01:57:58;;;;;;;5.4;3.9;;;;;;;-3.51;57.09668;96493.13;;;;
2020/03/23 01:59:00;;;;;;;5.4;3.9;;;;;;;-3.51;57.09668;96493.13;;;;
2020/03/23 02:00:00;;;;;;;5.4;3.9;;;;;;;-3.51;57.09668;96493.13;;;;
2020/03/23 02:01:01;;;;;;;5.4;3.9;;;;;;;-3.51;57.09668;96493.13;;;;
2020/03/23 02:02:25;;;;;;;5.4;3.9;;;;;;;-3.51;57.09668;96493.13;;;;
2020/03/23 02:03:38;;;;;;;5.4;3.9;;;;;;;-3.51;57.09668;96493.13;;;;
2020/03/23 02:04:43;;;;;;;5.4;3.9;;;;;;;-3.51;57.09668;96493.13;;;;
2020/03/23 02:05:50;;;;;;;5.4;3.9;;;;;;;-3.51;57.09668;96493.13;;;;
2020/03/23 02:06:50;;;;;;;5.4;3.9;;;;;;;-3.51;57.09668;96493.13;;;;
2020/03/23 02:07:55;;;;;;;5.4;3.9;;;;;;;-3.51;57.09668;96493.13;;;;
2020/03/23 02:08:56;;;;;;;6.2;4.05;;;;;;;-3.55;57.26855;96490.37;;;;
2020/03/23 02:09:57;;;;;;;6.2;4.05;;;;;;;-3.55;57.26855;96490.37;;;;
2020/03/23 02:11:21;;;;;;;6.2;4.05;;;;;;;-3.55;57.26855;96490.37;;;;
2020/03/23 02:12:31;;;;;;;6.2;4.05;;;;;;;-3.55;57.26855;96490.37;;;;
2020/03/23 02:13:33;;;;;;;6.2;4.05;;;;;;;-3.55;57.26855;96490.37;;;;
2020/03/23 02:14:33;;;;;;;6.2;4.05;;;;;;;-3.55;57.26855;96490.37;;;;
2020/03/23 02:15:35;;;;;;;6.2;4.05;;;;;;;-3.55;57.26855;96490.37;;;;
2020/03/23 02:16:45;;;;;;;6.2;4.05;;;;;;;-3.55;57.26855;96490.37;;;;
2020/03/23 02:18:54;;;;;;;6.35;3.95;;;;;;;-3.71;57.41309;96486.36;;;;
2020/03/23 02:19:54;;;;;;;6.35;3.95;;;;;;;-3.71;57.41309;96486.36;;;;
2020/03/23 02:20:57;;;;;;;6.35;3.95;;;;;;;-3.71;57.41309;96486.36;;;;
2020/03/23 02:22:03;;;;;;;6.35;3.95;;;;;;;-3.71;57.41309;96486.36;;;;
2020/03/23 02:23:08;;;;;;;6.35;3.95;;;;;;;-3.71;57.41309;96486.36;;;;
2020/03/23 02:24:13;;;;;;;6.35;3.95;;;;;;;-3.71;57.41309;96486.36;;;;
2020/03/23 02:25:18;;;;;;;6.35;3.95;;;;;;;-3.71;57.41309;96486.36;;;;
2020/03/23 02:26:25;;;;;;;6.35;3.95;;;;;;;-3.71;57.41309;96486.36;;;;
2020/03/23 02:27:31;;;;;;;6.35;3.95;;;;;;;-3.71;57.41309;96486.36;;;;
2020/03/23 02:28:32;;;;;;;6.35;3.95;;;;;;;-3.71;57.41309;96486.36;;;;
2020/03/23 02:29:35;;;;;;;6.35;3.95;;;;;;;-3.71;57.41309;96486.36;;;;
2020/03/23 02:30:36;;;;;;;6.35;3.95;;;;;;;-3.71;57.41309;96486.36;;;;
2020/03/23 02:31:40;;;;;;;6.35;3.95;;;;;;;-3.71;57.41309;96486.36;;;;
2020/03/23 02:34:50;;;;;;;6.35;3.95;;;;;;;-3.71;57.41309;96486.36;;;;
2020/03/23 02:35:59;;;;;;;6.35;3.95;;;;;;;-3.71;57.41309;96486.36;;;;
2020/03/23 02:42:24;;;;;;;6.400001;3.95;;;;;;;-3.81;57.49414;96486.7;;;;
2020/03/23 02:43:26;;;;;;;6.400001;3.95;;;;;;;-3.81;57.49414;96486.7;;;;
2020/03/23 02:44:30;;;;;;;6.400001;3.95;;;;;;;-3.81;57.49414;96486.7;;;;
2020/03/23 02:45:31;;;;;;;6.400001;3.95;;;;;;;-3.81;57.49414;96486.7;;;;
2020/03/23 02:46:34;;;;;;;6.400001;3.95;;;;;;;-3.81;57.49414;96486.7;;;;
2020/03/23 02:47:35;;;;;;;6.400001;3.95;;;;;;;-3.81;57.49414;96486.7;;;;
2020/03/23 02:48:35;;;;;;;6.400001;3.95;;;;;;;-3.81;57.49414;96486.7;;;;
2020/03/23 02:49:36;;;;;;;6.400001;3.95;;;;;;;-3.81;57.49414;96486.7;;;;
2020/03/23 02:50:36;;;;;;;6.400001;3.95;;;;;;;-3.81;57.49414;96486.7;;;;
2020/03/23 02:51:39;;;;;;;6.749999;4.25;;;;;;;-3.87;57.87988;96477.06;;;;
2020/03/23 02:52:41;;;;;;;6.749999;4.25;;;;;;;-3.87;57.87988;96477.06;;;;
2020/03/23 02:53:45;;;;;;;6.749999;4.25;;;;;;;-3.87;57.87988;96477.06;;;;
2020/03/23 02:54:45;;;;;;;6.749999;4.25;;;;;;;-3.87;57.87988;96477.06;;;;
2020/03/23 02:55:48;;;;;;;6.749999;4.25;;;;;;;-3.87;57.87988;96477.06;;;;
2020/03/23 02:56:52;;;;;;;6.749999;4.25;;;;;;;-3.87;57.87988;96477.06;;;;
2020/03/23 02:57:54;;;;;;;6.749999;4.25;;;;;;;-3.87;57.87988;96477.06;;;;
2020/03/23 02:58:58;;;;;;;6.749999;4.25;;;;;;;-3.87;57.87988;96477.06;;;;
2020/03/23 03:00:01;;;;;;;6.749999;4.25;;;;;;;-3.87;57.87988;96477.06;;;;
2020/03/23 03:01:04;;;;;;;6.749999;4.25;;;;;;;-3.87;57.87988;96477.06;;;;
2020/03/23 03:02:07;;;;;;;4.95;3.5;;;;;;;-3.98;58.17773;96477.48;;;;
2020/03/23 03:03:09;;;;;;;4.95;3.5;;;;;;;-3.98;58.17773;96477.48;;;;
2020/03/23 03:04:16;;;;;;;4.95;3.5;;;;;;;-3.98;58.17773;96477.48;;;;
2020/03/23 03:05:29;;;;;;;4.95;3.5;;;;;;;-3.98;58.17773;96477.48;;;;
2020/03/23 03:06:31;;;;;;;4.95;3.5;;;;;;;-3.98;58.17773;96477.48;;;;
2020/03/23 03:07:41;;;;;;;4.95;3.5;;;;;;;-3.98;58.17773;96477.48;;;;
2020/03/23 03:08:41;;;;;;;4.95;3.5;;;;;;;-3.98;58.17773;96477.48;;;;
2020/03/23 03:09:46;;;;;;;4.95;3.5;;;;;;;-3.98;58.17773;96477.48;;;;
2020/03/23 03:12:55;;;;;;;5.249999;3.65;;;;;;;-4.06;58.42578;96470.2;;;;
2020/03/23 03:13:56;;;;;;;5.249999;3.65;;;;;;;-4.06;58.42578;96470.2;;;;
2020/03/23 03:14:57;;;;;;;5.249999;3.65;;;;;;;-4.06;58.42578;96470.2;;;;
2020/03/23 03:15:57;;;;;;;5.249999;3.65;;;;;;;-4.06;58.42578;96470.2;;;;
2020/03/23 03:16:59;;;;;;;5.249999;3.65;;;;;;;-4.06;58.42578;96470.2;;;;
2020/03/23 03:18:01;;;;;;;5.249999;3.65;;;;;;;-4.06;58.42578;96470.2;;;;
2020/03/23 03:19:03;;;;;;;5.249999;3.65;;;;;;;-4.06;58.42578;96470.2;;;;
2020/03/23 03:20:04;;;;;;;5.249999;3.65;;;;;;;-4.06;58.42578;96470.2;;;;
2020/03/23 03:21:06;;;;;;;5.249999;3.65;;;;;;;-4.06;58.42578;96470.2;;;;
2020/03/23 03:22:09;;;;;;;5.249999;3.65;;;;;;;-4.06;58.42578;96470.2;;;;
2020/03/23 03:23:11;;;;;;;4;3.2;;;;;;;-4.17;58.46191;96467.16;;;;
2020/03/23 03:24:15;;;;;;;4;3.2;;;;;;;-4.17;58.46191;96467.16;;;;
2020/03/23 03:25:15;;;;;;;5.7;3.9;;;;;;;-4.14;58.75684;96460.31;;;;
2020/03/23 03:26:16;;;;;;;5.7;3.9;;;;;;;-4.14;58.75684;96460.31;;;;
2020/03/23 03:27:21;;;;;;;5.7;3.9;;;;;;;-4.14;58.75684;96460.31;;;;
2020/03/23 03:28:22;;;;;;;5.7;3.9;;;;;;;-4.14;58.75684;96460.31;;;;
2020/03/23 03:29:27;;;;;;;5.7;3.9;;;;;;;-4.14;58.75684;96460.31;;;;
2020/03/23 03:30:28;;;;;;;5.7;3.9;;;;;;;-4.14;58.75684;96460.31;;;;
2020/03/23 03:31:29;;;;;;;5.7;3.9;;;;;;;-4.14;58.75684;96460.31;;;;
2020/03/23 03:32:29;;;;;;;5.7;3.9;;;;;;;-4.14;58.75684;96460.31;;;;
2020/03/23 03:33:31;;;;;;;5.7;3.9;;;;;;;-4.14;58.75684;96460.31;;;;
2020/03/23 03:34:31;;;;;;;5.7;3.9;;;;;;;-4.14;58.75684;96460.31;;;;
2020/03/23 03:35:32;;;;;;;5.7;3.9;;;;;;;-4.14;58.75684;96460.31;;;;
2020/03/23 03:36:33;;;;;;;6.600001;4.1;;;;;;;-4.21;59.01758;96465.7;;;;
2020/03/23 03:37:35;;;;;;;6.600001;4.1;;;;;;;-4.21;59.01758;96465.7;;;;
2020/03/23 03:38:36;;;;;;;6.600001;4.1;;;;;;;-4.21;59.01758;96465.7;;;;
2020/03/23 03:39:38;;;;;;;6.600001;4.1;;;;;;;-4.21;59.01758;96465.7;;;;
2020/03/23 03:40:41;;;;;;;6.600001;4.1;;;;;;;-4.21;59.01758;96465.7;;;;
2020/03/23 03:41:42;;;;;;;6.600001;4.1;;;;;;;-4.21;59.01758;96465.7;;;;
2020/03/23 03:42:45;;;;;;;6.600001;4.1;;;;;;;-4.21;59.01758;96465.7;;;;
2020/03/23 03:43:46;;;;;;;6.600001;4.1;;;;;;;-4.21;59.01758;96465.7;;;;
2020/03/23 03:44:48;;;;;;;6.600001;4.1;;;;;;;-4.21;59.01758;96465.7;;;;
2020/03/23 03:45:52;;;;;;;6.600001;4.1;;;;;;;-4.21;59.01758;96465.7;;;;
2020/03/23 03:46:54;;;;;;;5.700001;3.9;;;;;;;-4.28;59.01855;96463.09;;;;
2020/03/23 03:47:57;;;;;;;5.700001;3.9;;;;;;;-4.28;59.01855;96463.09;;;;
2020/03/23 03:49:08;;;;;;;5.700001;3.9;;;;;;;-4.28;59.01855;96463.09;;;;
2020/03/23 03:50:09;;;;;;;5.700001;3.9;;;;;;;-4.28;59.01855;96463.09;;;;
2020/03/23 03:51:15;;;;;;;5.700001;3.9;;;;;;;-4.28;59.01855;96463.09;;;;
2020/03/23 03:52:16;;;;;;;5.700001;3.9;;;;;;;-4.28;59.01855;96463.09;;;;
2020/03/23 03:53:26;;;;;;;5.700001;3.9;;;;;;;-4.28;59.01855;96463.09;;;;
2020/03/23 03:54:29;;;;;;;5.700001;3.9;;;;;;;-4.28;59.01855;96463.09;;;;
2020/03/23 03:55:35;;;;;;;5.700001;3.9;;;;;;;-4.28;59.01855;96463.09;;;;
2020/03/23 03:56:37;;;;;;;5.700001;3.9;;;;;;;-4.28;59.01855;96463.09;;;;
2020/03/23 03:57:45;;;;;;;4.800001;3.7;;;;;;;-4.41;59.00098;96465.41;;;;
2020/03/23 03:58:54;;;;;;;4.800001;3.7;;;;;;;-4.41;59.00098;96465.41;;;;
2020/03/23 03:59:56;;;;;;;4.800001;3.7;;;;;;;-4.41;59.00098;96465.41;;;;
2020/03/23 04:01:01;;;;;;;4.800001;3.7;;;;;;;-4.41;59.00098;96465.41;;;;
2020/03/23 04:02:36;;;;;;;4.800001;3.7;;;;;;;-4.41;59.00098;96465.41;;;;
2020/03/23 04:03:37;;;;;;;4.800001;3.7;;;;;;;-4.41;59.00098;96465.41;;;;
2020/03/23 04:04:40;;;;;;;4.800001;3.7;;;;;;;-4.41;59.00098;96465.41;;;;
2020/03/23 04:05:43;;;;;;;4.800001;3.7;;;;;;;-4.41;59.00098;96465.41;;;;
2020/03/23 04:06:44;;;;;;;4.800001;3.7;;;;;;;-4.41;59.00098;96465.41;;;;
2020/03/23 04:07:51;;;;;;;5.750001;3.85;;;;;;;-4.44;59.12012;96466.54;;;;
2020/03/23 04:08:53;;;;;;;5.750001;3.85;;;;;;;-4.44;59.12012;96466.54;;;;
2020/03/23 04:09:56;;;;;;;5.750001;3.85;;;;;;;-4.44;59.12012;96466.54;;;;
2020/03/23 04:11:40;;;;;;;5.750001;3.85;;;;;;;-4.44;59.12012;96466.54;;;;
2020/03/23 04:12:40;;;;;;;5.750001;3.85;;;;;;;-4.44;59.12012;96466.54;;;;
2020/03/23 04:13:41;;;;;;;5.750001;3.85;;;;;;;-4.44;59.12012;96466.54;;;;
2020/03/23 04:14:44;;;;;;;5.750001;3.85;;;;;;;-4.44;59.12012;96466.54;;;;
2020/03/23 04:15:49;;;;;;;5.750001;3.85;;;;;;;-4.44;59.12012;96466.54;;;;
2020/03/23 04:16:55;;;;;;;5.750001;3.85;;;;;;;-4.44;59.12012;96466.54;;;;
2020/03/23 04:17:57;;;;;;;5.750001;3.85;;;;;;;-4.44;59.12012;96466.54;;;;
2020/03/23 04:19:01;;;;;;;4.9;3.3;;;;;;;-4.55;59.20898;96468.25;;;;
2020/03/23 04:20:04;;;;;;;4.9;3.3;;;;;;;-4.55;59.20898;96468.25;;;;
2020/03/23 04:21:05;;;;;;;4.9;3.3;;;;;;;-4.55;59.20898;96468.25;;;;
2020/03/23 04:22:05;;;;;;;4.9;3.3;;;;;;;-4.55;59.20898;96468.25;;;;
2020/03/23 04:23:08;;;;;;;4.9;3.3;;;;;;;-4.55;59.20898;96468.25;;;;
2020/03/23 04:24:08;;;;;;;4.9;3.3;;;;;;;-4.55;59.20898;96468.25;;;;
2020/03/23 04:25:22;;;;;;;4.9;3.3;;;;;;;-4.55;59.20898;96468.25;;;;
2020/03/23 04:26:24;;;;;;;4.9;3.3;;;;;;;-4.55;59.20898;96468.25;;;;
2020/03/23 04:27:34;;;;;;;4.9;3.3;;;;;;;-4.55;59.20898;96468.25;;;;
2020/03/23 04:28:45;;;;;;;4.9;3.3;;;;;;;-4.55;59.20898;96468.25;;;;
2020/03/23 04:29:50;;;;;;;6.45;3.9;;;;;;;-4.62;59.05371;96476.25;;;;
2020/03/23 04:30:53;;;;;;;6.45;3.9;;;;;;;-4.62;59.05371;96476.25;;;;
2020/03/23 04:31:56;;;;;;;6.45;3.9;;;;;;;-4.62;59.05371;96476.25;;;;
2020/03/23 04:32:58;;;;;;;6.45;3.9;;;;;;;-4.62;59.05371;96476.25;;;;
2020/03/23 04:34:03;;;;;;;6.45;3.9;;;;;;;-4.62;59.05371;96476.25;;;;
2020/03/23 04:35:04;;;;;;;6.45;3.9;;;;;;;-4.62;59.05371;96476.25;;;;
2020/03/23 04:36:04;;;;;;;6.45;3.9;;;;;;;-4.62;59.05371;96476.25;;;;
2020/03/23 04:37:07;;;;;;;6.45;3.9;;;;;;;-4.62;59.05371;96476.25;;;;
2020/03/23 04:38:08;;;;;;;6.45;3.9;;;;;;;-4.62;59.05371;96476.25;;;;
2020/03/23 04:39:13;;;;;;;6.45;3.9;;;;;;;-4.62;59.05371;96476.25;;;;
2020/03/23 04:40:49;;;;;;;6.199999;3.85;;;;;;;-4.74;59.28516;96482.48;;;;
2020/03/23 04:41:52;;;;;;;6.199999;3.85;;;;;;;-4.74;59.28516;96482.48;;;;
2020/03/23 04:43:09;;;;;;;6.199999;3.85;;;;;;;-4.74;59.28516;96482.48;;;;
2020/03/23 04:45:16;;;;;;;6.199999;3.85;;;;;;;-4.74;59.28516;96482.48;;;;
2020/03/23 04:46:19;;;;;;;6.199999;3.85;;;;;;;-4.74;59.28516;96482.48;;;;
2020/03/23 04:47:21;;;;;;;6.199999;3.85;;;;;;;-4.74;59.28516;96482.48;;;;
2020/03/23 04:48:27;;;;;;;6.199999;3.85;;;;;;;-4.74;59.28516;96482.48;;;;
2020/03/23 04:49:36;;;;;;;6.199999;3.85;;;;;;;-4.74;59.28516;96482.48;;;;
2020/03/23 04:50:39;;;;;;;4.85;3.55;;;;;;;-4.79;59.36133;96491.17;;;;
2020/03/23 04:51:43;;;;;;;4.85;3.55;;;;;;;-4.79;59.36133;96491.17;;;;
2020/03/23 04:52:44;;;;;;;4.85;3.55;;;;;;;-4.79;59.36133;96491.17;;;;
2020/03/23 04:53:45;;;;;;;4.85;3.55;;;;;;;-4.79;59.36133;96491.17;;;;
2020/03/23 04:54:53;;;;;;;4.85;3.55;;;;;;;-4.79;59.36133;96491.17;;;;
2020/03/23 04:56:06;;;;;;;4.85;3.55;;;;;;;-4.79;59.36133;96491.17;;;;
2020/03/23 04:57:12;;;;;;;4.85;3.55;;;;;;;-4.79;59.36133;96491.17;;;;
2020/03/23 04:58:24;;;;;;;4.85;3.55;;;;;;;-4.79;59.36133;96491.17;;;;
2020/03/23 05:00:01;;;;;;;4.85;3.55;;;;;;;-4.79;59.36133;96491.17;;;;
2020/03/23 05:01:44;;;;;;;5.7;3.55;;;;;;;-4.89;59.67871;96492.78;;;;
2020/03/23 05:02:53;;;;;;;5.7;3.55;;;;;;;-4.89;59.67871;96492.78;;;;
2020/03/23 05:04:04;;;;;;;5.7;3.55;;;;;;;-4.89;59.67871;96492.78;;;;
2020/03/23 05:05:09;;;;;;;5.7;3.55;;;;;;;-4.89;59.67871;96492.78;;;;
2020/03/23 05:06:13;;;;;;;5.7;3.55;;;;;;;-4.89;59.67871;96492.78;;;;
2020/03/23 05:07:24;;;;;;;5.7;3.55;;;;;;;-4.89;59.67871;96492.78;;;;
2020/03/23 05:08:29;;;;;;;5.7;3.55;;;;;;;-4.89;59.67871;96492.78;;;;
2020/03/23 05:11:49;;;;;;;5.249999;3.8;;;;;;;-4.85;60.08789;96492.93;;;;
2020/03/23 05:13:17;;;;;;;5.249999;3.8;;;;;;;-4.85;60.08789;96492.93;;;;
2020/03/23 05:14:40;;;;;;;5.249999;3.8;;;;;;;-4.85;60.08789;96492.93;;;;
2020/03/23 05:15:55;;;;;;;5.249999;3.8;;;;;;;-4.85;60.08789;96492.93;;;;
2020/03/23 05:17:01;;;;;;;5.249999;3.8;;;;;;;-4.85;60.08789;96492.93;;;;
2020/03/23 05:18:57;;;;;;;5.249999;3.8;;;;;;;-4.85;60.08789;96492.93;;;;
2020/03/23 05:20:08;;;;;;;5.249999;3.8;;;;;;;-4.85;60.08789;96492.93;;;;
2020/03/23 05:21:09;;;;;;;5.249999;3.8;;;;;;;-4.85;60.08789;96492.93;;;;
2020/03/23 05:27:00;;;;;;;5.15;3.5;;;;;;;-4.85;60.19336;96501.26;;;;
2020/03/23 05:28:05;;;;;;;5.15;3.5;;;;;;;-4.85;60.19336;96501.26;;;;
2020/03/23 05:30:23;;;;;;;5.15;3.5;;;;;;;-4.85;60.19336;96501.26;;;;
2020/03/23 05:31:57;;;;;;;5.15;3.5;;;;;;;-4.85;60.19336;96501.26;;;;
2020/03/23 05:33:12;;;;;;;5.45;3.7;;;;;;;-4.75;60.3418;96517.63;;;;
2020/03/23 05:38:41;;;;;;;5.45;3.7;;;;;;;-4.75;60.3418;96517.63;;;;
2020/03/23 05:39:47;;;;;;;5.45;3.7;;;;;;;-4.75;60.3418;96517.63;;;;
2020/03/23 05:40:50;;;;;;;5.45;3.7;;;;;;;-4.75;60.3418;96517.63;;;;
2020/03/23 05:42:03;;;;;;;5.45;3.7;;;;;;;-4.75;60.3418;96517.63;;;;
2020/03/23 05:44:08;;;;;;;6.35;4;;;;;;;-4.73;60.14746;96517.03;;;;
2020/03/23 05:45:27;;;;;;;6.35;4;;;;;;;-4.73;60.14746;96517.03;;;;
2020/03/23 05:46:54;;;;;;;6.35;4;;;;;;;-4.73;60.14746;96517.03;;;;
2020/03/23 05:48:39;;;;;;;6.35;4;;;;;;;-4.73;60.14746;96517.03;;;;
2020/03/23 05:50:01;;;;;;;6.35;4;;;;;;;-4.73;60.14746;96517.03;;;;
2020/03/23 05:51:09;;;;;;;6.35;4;;;;;;;-4.73;60.14746;96517.03;;;;
2020/03/23 05:53:12;;;;;;;6.35;4;;;;;;;-4.73;60.14746;96517.03;;;;
2020/03/23 05:54:42;;;;;;;5.85;3.7;;;;;;;-4.57;60.57324;96526.87;;;;
2020/03/23 05:57:01;;;;;;;5.85;3.7;;;;;;;-4.57;60.57324;96526.87;;;;
2020/03/23 05:58:42;;;;;;;5.85;3.7;;;;;;;-4.57;60.57324;96526.87;;;;
2020/03/23 06:04:26;;;;;;;4.75;3.3;;;;;;;-4.44;60.34473;96526.26;;;;
2020/03/23 06:05:47;;;;;;;4.75;3.3;;;;;;;-4.44;60.34473;96526.26;;;;
2020/03/23 06:06:50;;;;;;;4.75;3.3;;;;;;;-4.44;60.34473;96526.26;;;;
2020/03/23 06:07:53;;;;;;;4.75;3.3;;;;;;;-4.44;60.34473;96526.26;;;;
2020/03/23 06:08:56;;;;;;;4.75;3.3;;;;;;;-4.44;60.34473;96526.26;;;;
2020/03/23 06:09:57;;;;;;;4.75;3.3;;;;;;;-4.44;60.34473;96526.26;;;;
2020/03/23 06:11:05;;;;;;;4.75;3.3;;;;;;;-4.44;60.34473;96526.26;;;;
2020/03/23 06:12:07;;;;;;;4.75;3.3;;;;;;;-4.44;60.34473;96526.26;;;;
2020/03/23 06:13:11;;;;;;;4.75;3.3;;;;;;;-4.44;60.34473;96526.26;;;;
2020/03/23 06:14:19;;;;;;;4.75;3.3;;;;;;;-4.44;60.34473;96526.26;;;;
2020/03/23 06:15:23;;;;;;;5.850001;3.7;;;;;;;-4.19;60.10938;96536.22;;;;
2020/03/23 06:16:27;;;;;;;5.850001;3.7;;;;;;;-4.19;60.10938;96536.22;;;;
2020/03/23 06:18:31;;;;;;;5.850001;3.7;;;;;;;-4.19;60.10938;96536.22;;;;
2020/03/23 06:21:03;;;;;;;5.850001;3.7;;;;;;;-4.19;60.10938;96536.22;;;;
2020/03/23 06:22:54;;;;;;;5.850001;3.7;;;;;;;-4.19;60.10938;96536.22;;;;
2020/03/23 06:24:20;;;;;;;5.850001;3.7;;;;;;;-4.19;60.10938;96536.22;;;;
2020/03/23 06:25:35;;;;;;;3.8;3.3;;;;;;;-3.91;59.91992;96546.41;;;;
2020/03/23 06:26:47;;;;;;;3.8;3.3;;;;;;;-3.91;59.91992;96546.41;;;;
2020/03/23 06:27:50;;;;;;;3.8;3.3;;;;;;;-3.91;59.91992;96546.41;;;;
2020/03/23 06:28:53;;;;;;;3.8;3.3;;;;;;;-3.91;59.91992;96546.41;;;;
2020/03/23 06:30:10;;;;;;;3.8;3.3;;;;;;;-3.91;59.91992;96546.41;;;;
2020/03/23 06:31:21;;;;;;;3.8;3.3;;;;;;;-3.91;59.91992;96546.41;;;;
2020/03/23 06:32:42;;;;;;;3.8;3.3;;;;;;;-3.91;59.91992;96546.41;;;;
2020/03/23 06:33:53;;;;;;;3.8;3.3;;;;;;;-3.91;59.91992;96546.41;;;;
2020/03/23 06:35:02;;;;;;;3.8;3.3;;;;;;;-3.91;59.91992;96546.41;;;;
2020/03/23 06:36:02;;;;;;;7.600001;3.7;;;;;;;-3.41;59.5459;96540.69;;;;
2020/03/23 06:37:05;;;;;;;7.600001;3.7;;;;;;;-3.41;59.5459;96540.69;;;;
2020/03/23 06:38:08;;;;;;;7.600001;3.7;;;;;;;-3.41;59.5459;96540.69;;;;
2020/03/23 06:39:12;;;;;;;7.600001;3.7;;;;;;;-3.41;59.5459;96540.69;;;;
2020/03/23 06:40:24;;;;;;;7.600001;3.7;;;;;;;-3.41;59.5459;96540.69;;;;
2020/03/23 06:41:57;;;;;;;7.600001;3.7;;;;;;;-3.41;59.5459;96540.69;;;;
2020/03/23 06:46:33;;;;;;;5;3.5;;;;;;;-2.59;58.24219;96546.38;;;;
2020/03/23 06:47:51;;;;;;;5;3.5;;;;;;;-2.59;58.24219;96546.38;;;;
2020/03/23 06:49:04;;;;;;;5;3.5;;;;;;;-2.59;58.24219;96546.38;;;;
2020/03/23 06:50:28;;;;;;;4.9;3.85;;;;;;;-2.33;58.06152;96539.73;;;;
2020/03/23 06:51:52;;;;;;;4.9;3.85;;;;;;;-2.33;58.06152;96539.73;;;;
2020/03/23 06:52:54;;;;;;;4.9;3.85;;;;;;;-2.33;58.06152;96539.73;;;;
2020/03/23 06:53:56;;;;;;;4.9;3.85;;;;;;;-2.33;58.06152;96539.73;;;;
2020/03/23 06:55:31;;;;;;;4.9;3.85;;;;;;;-2.33;58.06152;96539.73;;;;
2020/03/23 06:56:37;;;;;;;4.9;3.85;;;;;;;-2.33;58.06152;96539.73;;;;
2020/03/23 06:57:38;;;;;;;4.9;3.85;;;;;;;-2.33;58.06152;96539.73;;;;
2020/03/23 06:58:39;;;;;;;4.9;3.85;;;;;;;-2.33;58.06152;96539.73;;;;
2020/03/23 06:59:39;;;;;;;4.9;3.85;;;;;;;-2.33;58.06152;96539.73;;;;
2020/03/23 07:00:44;;;;;;;5.750001;3.65;;;;;;;-1.55;56.65137;96551.62;;;;
2020/03/23 07:01:51;;;;;;;5.750001;3.65;;;;;;;-1.55;56.65137;96551.62;;;;
2020/03/23 07:02:53;;;;;;;8.299998;4.05;;;;;;;-1.3;56.44531;96563.53;;;;
2020/03/23 07:03:56;;;;;;;8.299998;4.05;;;;;;;-1.3;56.44531;96563.53;;;;